Altamont, KS

1:10 PM CDT on September 21, 2014 (GMT -0500)
KKSPARSO2 | Change Station
CLOSE
Current Station
Personal Weather Station
Location: Parsons, KS
Elevation: 899 ft
Nearby Weather Stations

Elev 899 ft 37.34 °N, 95.28 °W | Updated 1 minute ago

Clear
Clear
78.9 °F
Feels Like 80 °F
N
0.0
Wind Variable Wind from North
Gusts 2.9 mph

Today
High -- | Low -- °F
--% Chance of Precip.
Yesterday
High -- | Low -- °F
Precip. -- in
7:08 AM 7:19 PM
Waning Crescent, 6% visible
Pressure 30.16 in
Visibility 10.0 miles
Clouds Clear
Heat Index 80 °F
Dew Point 56 °F
Humidity 46%
Rainfall 0.00 in
Snow Depth Not available.
UV 8 out of 12
Pollen 10.30 out of 12
Air Quality Not available.
Flu Activity Not available.
METAR KPPF 211752Z AUTO 02009G17KT 10SM CLR 27/08 A3019 RMK AO2 SLP213 T02670078 10267 20189 50003

More Conditions Fewer Conditions

Pressure 30.16 in
Visibility 10.0 miles
Clouds Clear
Heat Index 80 °F
Dew Point 56 °F
Humidity 46%
Rainfall 0.00 in
Snow Depth Not available.
UV 8 out of 12
Pollen 10.30 out of 12
Air Quality Not available.
Flu Activity Not available.
METAR KPPF 211752Z AUTO 02009G17KT 10SM CLR 27/08 A3019 RMK AO2 SLP213 T02670078 10267 20189 50003

More Conditions Fewer Conditions

10-Day Weather Forecast

Almanac

Astronomy

Sep. 21, 2014 Rise Set
Actual Time 7:08 AM CDT 7:19 PM CDT
Civil Twilight 6:42 AM CDT 7:45 PM CDT
Nautical Twilight 6:11 AM CDT 8:15 PM CDT
Astronomical Twilight 5:40 AM CDT 8:46 PM CDT
Moon 4:45 AM CDT 5:54 PM CDT
Length of Visible Light 13h 03m
Length of Day
12h 11m
Tomorrow will be 2m 22s shorter.
Waning Crescent, 6% of the Moon is Illuminated
Today
Waning Crescent
Sep 24
New
Oct 1
First Quarter
Oct 8
Full
Oct 15
Last Quarter

Today's Extremes

State Highs State Lows

Community

WunderPhotos

Upload Photos

1,755,213 photos uploaded!

WunderBlogs® & News

Nearby

Snow Depth

Station Depth Elevation
No new snow has been reported.

Earthquake Activity

City Distance Mag. Time & Date
Luther, Oklahoma 145 miles 2.7 4:47 PM CDT
2014-09-19
Jones, Oklahoma 157 miles 2.8 1:13 AM CDT
2014-09-19
Perry, Oklahoma 128 miles 3.3 12:08 AM CDT
2014-09-19
Perry, Oklahoma 125 miles 3.4 2:52 PM CDT
2014-09-18
Minimum magnitude displayed is 2.5.

Coastal Water Temperatures

Place Temperature
No Stations Reporting

Nearby Weather Stations